createdAt,value
2022-10-14T00:00:13.853Z,6.70
2022-10-14T00:02:43.793Z,5.93
2022-10-14T00:05:13.581Z,6.65
2022-10-14T00:07:43.407Z,7.03
2022-10-14T00:10:13.168Z,8.15
2022-10-14T00:12:43.174Z,7.55
2022-10-14T00:15:13.107Z,7.80
2022-10-14T00:17:42.901Z,7.75
2022-10-14T00:20:13.036Z,9.00
2022-10-14T00:22:42.768Z,8.13
2022-10-14T00:25:12.749Z,7.57
2022-10-14T00:27:42.534Z,7.82
2022-10-14T00:30:12.961Z,10.07
2022-10-14T00:32:42.842Z,10.23
2022-10-14T00:35:12.718Z,9.88
2022-10-14T00:37:42.464Z,9.75
2022-10-14T00:40:13.559Z,9.43
2022-10-14T00:42:43.402Z,8.70
2022-10-14T00:45:18.808Z,9.95
2022-10-14T00:47:49.541Z,9.65
2022-10-14T00:50:22.036Z,9.52
2022-10-14T00:52:52.570Z,9.25
2022-10-14T00:55:22.668Z,10.13
2022-10-14T00:57:52.707Z,9.75
2022-10-14T01:00:24.248Z,8.30
2022-10-14T01:02:54.107Z,10.00
2022-10-14T01:05:24.861Z,10.40
2022-10-14T01:08:09.782Z,9.20
2022-10-14T01:10:53.011Z,9.13
2022-10-14T01:13:44.368Z,10.88
2022-10-14T01:16:24.068Z,11.10
2022-10-14T01:19:31.293Z,10.23
2022-10-14T01:22:29.019Z,11.55
2022-10-14T01:25:21.903Z,12.90
2022-10-14T01:28:21.948Z,15.07
2022-10-14T01:31:06.840Z,16.95
2022-10-14T01:33:46.150Z,16.67
2022-10-14T01:36:38.596Z,15.65
2022-10-14T01:39:20.485Z,18.92
2022-10-14T01:42:03.059Z,19.30
2022-10-14T01:44:34.687Z,14.50
2022-10-14T01:47:06.588Z,17.25
2022-10-14T01:49:44.370Z,16.58
2022-10-14T01:52:24.150Z,14.88
2022-10-14T01:54:58.338Z,17.60
2022-10-14T01:57:32.759Z,16.02
2022-10-14T02:00:04.279Z,15.77
2022-10-14T02:02:37.807Z,15.52
2022-10-14T02:05:16.130Z,16.02
2022-10-14T02:07:49.145Z,16.00
2022-10-14T02:10:57.019Z,13.80
2022-10-14T02:13:54.503Z,14.75
2022-10-14T02:16:40.552Z,13.60
2022-10-14T02:19:41.028Z,15.55
2022-10-14T02:22:36.324Z,16.48
2022-10-14T02:25:16.428Z,15.45
2022-10-14T02:30:18.899Z,14.68
2022-10-14T02:32:50.040Z,16.58
2022-10-14T02:35:22.581Z,12.52
2022-10-14T02:37:54.445Z,10.25
2022-10-14T02:40:33.932Z,10.73
2022-10-14T02:43:04.829Z,11.45
2022-10-14T02:45:34.680Z,11.93
2022-10-14T02:48:04.666Z,12.73
2022-10-14T02:50:35.004Z,14.25
2022-10-14T02:53:05.424Z,14.38
2022-10-14T02:55:35.465Z,14.23
2022-10-14T03:00:34.447Z,12.07
2022-10-14T03:03:04.547Z,13.50
2022-10-14T03:05:34.508Z,15.15
2022-10-14T03:10:33.789Z,12.57
2022-10-14T03:15:33.098Z,14.30
2022-10-14T03:18:04.052Z,12.20
2022-10-14T03:20:33.873Z,14.50
2022-10-14T03:23:03.751Z,13.80
2022-10-14T03:25:33.743Z,13.85
2022-10-14T03:30:33.078Z,15.43
2022-10-14T03:33:03.020Z,12.85
2022-10-14T03:38:04.879Z,14.63
2022-10-14T03:40:34.782Z,12.98
2022-10-14T03:45:33.960Z,7.70
2022-10-14T03:50:33.236Z,7.25
2022-10-14T03:53:03.233Z,8.95
2022-10-14T03:55:33.155Z,10.82
2022-10-14T04:00:32.558Z,15.30
2022-10-14T04:03:02.332Z,17.92
2022-10-14T04:05:35.494Z,17.95
2022-10-14T04:08:05.992Z,15.77
2022-10-14T04:10:36.050Z,15.77
2022-10-14T04:13:06.477Z,15.48
2022-10-14T04:15:38.610Z,19.17
2022-10-14T04:18:08.769Z,17.25
2022-10-14T04:20:39.467Z,17.27
2022-10-14T04:23:09.603Z,18.83
2022-10-14T04:25:41.371Z,15.15
2022-10-14T04:28:11.803Z,14.60
2022-10-14T04:30:41.675Z,13.45
2022-10-14T04:35:41.325Z,18.33
2022-10-14T04:38:11.116Z,18.08
2022-10-14T04:40:40.977Z,17.27
2022-10-14T04:45:40.242Z,17.40
2022-10-14T04:50:39.501Z,15.93
2022-10-14T04:55:43.510Z,14.07
2022-10-14T05:00:43.611Z,14.35
2022-10-14T05:03:13.627Z,14.35
2022-10-14T05:05:43.658Z,13.30
2022-10-14T05:08:13.716Z,14.48
2022-10-14T05:10:43.653Z,14.32
2022-10-14T05:15:43.338Z,12.02
2022-10-14T05:18:15.185Z,11.48
2022-10-14T05:20:45.484Z,11.88
2022-10-14T05:23:16.003Z,10.30
2022-10-14T05:25:46.341Z,10.48
2022-10-14T05:28:17.358Z,10.27
2022-10-14T05:30:48.975Z,10.75
2022-10-14T05:33:19.610Z,9.10
2022-10-14T05:36:05.151Z,8.40
2022-10-14T05:38:36.435Z,7.65
2022-10-14T05:41:07.069Z,7.03
2022-10-14T05:43:37.388Z,7.97
2022-10-14T05:46:08.162Z,6.63
2022-10-14T05:48:38.498Z,7.30
2022-10-14T05:51:09.360Z,6.32
2022-10-14T05:53:42.029Z,6.40
2022-10-14T05:56:13.250Z,5.57
2022-10-14T05:58:43.887Z,5.78
2022-10-14T06:01:14.913Z,6.22
2022-10-14T06:03:45.514Z,6.15
2022-10-14T06:06:16.813Z,5.82
2022-10-14T06:08:47.605Z,5.35
2022-10-14T06:11:18.080Z,5.25
2022-10-14T06:13:48.449Z,5.35
2022-10-14T06:16:18.951Z,4.28
2022-10-14T06:18:54.130Z,3.70
2022-10-14T06:21:25.502Z,4.00
2022-10-14T06:23:55.881Z,4.05
2022-10-14T06:26:26.271Z,3.80
2022-10-14T06:28:56.697Z,3.92
2022-10-14T06:31:31.977Z,3.78
2022-10-14T06:34:02.973Z,3.58
2022-10-14T06:36:34.505Z,3.72
2022-10-14T06:39:05.860Z,4.00
2022-10-14T06:41:36.548Z,4.07
2022-10-14T06:44:06.950Z,3.50
2022-10-14T06:46:37.666Z,3.15
2022-10-14T06:49:07.921Z,3.55
2022-10-14T06:51:39.863Z,3.30
2022-10-14T06:54:10.969Z,3.80
2022-10-14T06:56:44.275Z,3.88
2022-10-14T06:59:14.612Z,4.00
2022-10-14T07:01:45.022Z,4.43
2022-10-14T07:04:15.462Z,3.40
2022-10-14T07:06:45.856Z,3.42
2022-10-14T07:09:16.302Z,3.40
2022-10-14T07:11:46.798Z,3.50
2022-10-14T07:14:17.014Z,3.80
2022-10-14T07:16:47.647Z,3.45
2022-10-14T07:19:18.118Z,3.80
2022-10-14T07:21:49.581Z,4.55
2022-10-14T07:24:19.964Z,4.47
2022-10-14T07:26:50.554Z,3.63
2022-10-14T07:29:21.010Z,3.50
2022-10-14T07:31:51.440Z,4.03
2022-10-14T07:34:21.980Z,3.65
2022-10-14T07:36:52.253Z,3.55
2022-10-14T07:39:23.694Z,3.28
2022-10-14T07:41:54.188Z,4.07
2022-10-14T07:44:27.231Z,5.78
2022-10-14T07:46:58.082Z,8.63
2022-10-14T07:49:28.596Z,5.82
2022-10-14T07:51:59.015Z,7.88
2022-10-14T07:54:34.652Z,5.07
2022-10-14T07:57:05.070Z,4.43
2022-10-14T07:59:35.604Z,5.00
2022-10-14T08:02:08.056Z,5.72
2022-10-14T08:04:38.380Z,4.18
2022-10-14T08:07:09.145Z,3.85
2022-10-14T08:09:39.595Z,5.28
2022-10-14T08:12:10.362Z,5.57
2022-10-14T08:14:40.875Z,8.07
2022-10-14T08:17:11.282Z,5.70
2022-10-14T08:19:41.653Z,5.53
2022-10-14T08:22:13.073Z,7.50
2022-10-14T08:24:43.461Z,8.13
2022-10-14T08:27:14.133Z,7.80
2022-10-14T08:29:44.606Z,7.35
2022-10-14T08:32:15.378Z,6.75
2022-10-14T08:34:45.774Z,7.22
2022-10-14T08:37:16.377Z,6.97
2022-10-14T08:39:46.775Z,7.22
2022-10-14T08:42:50.135Z,7.28
2022-10-14T08:45:33.147Z,7.38
2022-10-14T08:48:10.872Z,7.20
2022-10-14T08:50:48.988Z,7.07
2022-10-14T08:53:25.077Z,7.35
2022-10-14T08:56:01.789Z,8.00
2022-10-14T08:58:52.211Z,7.40
2022-10-14T09:01:46.601Z,7.78
2022-10-14T09:04:18.745Z,6.97
2022-10-14T09:06:50.628Z,7.05
2022-10-14T09:09:28.615Z,7.10
2022-10-14T09:12:04.839Z,7.18
2022-10-14T09:14:41.549Z,6.35
2022-10-14T09:17:22.341Z,6.00
2022-10-14T09:20:16.165Z,7.22
2022-10-14T09:22:47.917Z,6.95
2022-10-14T09:25:20.113Z,7.47
2022-10-14T09:27:49.988Z,7.15
2022-10-14T09:30:20.791Z,6.28
2022-10-14T09:32:56.114Z,7.18
2022-10-14T09:35:37.377Z,6.03
2022-10-14T09:38:07.648Z,7.80
2022-10-14T09:40:41.664Z,6.55
2022-10-14T09:43:21.265Z,6.80
2022-10-14T09:46:12.719Z,6.25
2022-10-14T09:48:57.963Z,8.40
2022-10-14T09:51:36.147Z,6.47
2022-10-14T09:56:51.304Z,6.43
2022-10-14T09:59:24.621Z,6.53
2022-10-14T10:02:00.271Z,6.45
2022-10-14T10:04:49.125Z,7.25
2022-10-14T10:07:32.424Z,6.83
2022-10-14T10:10:05.938Z,6.22
2022-10-14T10:12:38.413Z,6.50
2022-10-14T10:15:09.571Z,6.70
2022-10-14T10:17:42.599Z,6.72
2022-10-14T10:20:34.809Z,6.32
2022-10-14T10:23:27.143Z,5.60
2022-10-14T10:25:57.573Z,5.70
2022-10-14T10:28:34.692Z,6.25
2022-10-14T10:31:23.127Z,6.32
2022-10-14T10:34:14.634Z,6.95
2022-10-14T10:36:55.607Z,5.95
2022-10-14T10:39:59.323Z,6.00
2022-10-14T10:42:39.825Z,6.80
2022-10-14T10:45:40.728Z,7.45
2022-10-14T10:48:25.333Z,7.47
2022-10-14T10:51:04.327Z,8.02
2022-10-14T10:54:06.515Z,7.27
2022-10-14T10:56:55.660Z,8.18
2022-10-14T10:59:42.067Z,8.30
2022-10-14T11:02:47.624Z,10.20
2022-10-14T11:05:51.276Z,10.15
2022-10-14T11:08:56.414Z,9.80
2022-10-14T11:12:06.739Z,9.27
2022-10-14T11:14:55.616Z,8.10
2022-10-14T11:17:41.567Z,9.00
2022-10-14T11:20:47.719Z,7.72
2022-10-14T11:23:48.385Z,9.90
2022-10-14T11:26:47.152Z,9.70
2022-10-14T11:29:37.713Z,8.63
2022-10-14T11:32:25.553Z,9.13
2022-10-14T11:35:28.871Z,9.02
2022-10-14T11:38:37.665Z,8.98
2022-10-14T11:41:24.249Z,12.13
2022-10-14T11:44:32.640Z,11.15
2022-10-14T11:47:07.502Z,14.82
2022-10-14T11:49:57.387Z,15.13
2022-10-14T11:52:34.458Z,11.30
2022-10-14T11:55:22.835Z,9.80
2022-10-14T11:57:59.879Z,10.60
2022-10-14T12:00:59.650Z,10.15
2022-10-14T12:03:48.285Z,10.52
2022-10-14T12:06:36.082Z,10.32
2022-10-14T12:09:22.336Z,11.43
2022-10-14T12:11:59.801Z,10.45
2022-10-14T12:14:52.627Z,9.27
2022-10-14T12:17:45.907Z,8.88
2022-10-14T12:20:51.899Z,11.23
2022-10-14T12:23:34.846Z,11.27
2022-10-14T12:26:42.286Z,10.52
2022-10-14T12:29:17.969Z,13.13
2022-10-14T12:32:10.573Z,13.40
2022-10-14T12:34:44.043Z,11.93
2022-10-14T12:37:44.700Z,11.10
2022-10-14T12:40:30.216Z,10.30
2022-10-14T12:43:05.897Z,10.88
2022-10-14T12:45:37.932Z,11.02
2022-10-14T12:48:20.492Z,12.20
2022-10-14T12:50:53.249Z,13.48
2022-10-14T12:53:29.243Z,12.40
2022-10-14T12:56:04.057Z,12.70
2022-10-14T12:58:42.779Z,13.18
2022-10-14T13:01:23.091Z,11.35
2022-10-14T13:03:59.956Z,11.80
2022-10-14T13:06:42.382Z,12.45
2022-10-14T13:09:34.319Z,11.45
2022-10-14T13:12:43.092Z,10.10
2022-10-14T13:15:50.968Z,10.88
2022-10-14T13:18:51.565Z,10.98
2022-10-14T13:21:55.468Z,11.65
2022-10-14T13:24:36.962Z,11.88
2022-10-14T13:27:25.462Z,12.23
2022-10-14T13:30:19.061Z,11.48
2022-10-14T13:33:00.419Z,11.88
2022-10-14T13:35:51.391Z,15.05
2022-10-14T13:38:25.340Z,14.45
2022-10-14T13:40:58.711Z,16.15
2022-10-14T13:43:43.985Z,16.58
2022-10-14T13:46:24.655Z,16.50
2022-10-14T13:48:58.620Z,15.18
2022-10-14T13:51:45.352Z,18.65
2022-10-14T13:54:25.928Z,15.95
2022-10-14T14:00:42.265Z,18.67
2022-10-14T14:03:28.326Z,17.70
2022-10-14T14:05:59.878Z,15.93
2022-10-14T14:08:40.390Z,17.25
2022-10-14T14:11:19.157Z,20.13
2022-10-14T14:14:00.283Z,18.65
2022-10-14T14:16:37.766Z,15.40
2022-10-14T14:19:09.593Z,15.10
2022-10-14T14:21:40.406Z,17.13
2022-10-14T14:24:26.757Z,16.73
2022-10-14T14:26:57.920Z,17.75
2022-10-14T14:29:31.021Z,17.50
2022-10-14T14:32:07.508Z,15.85
2022-10-14T14:34:40.886Z,13.63
2022-10-14T14:40:22.183Z,14.70
2022-10-14T14:42:59.852Z,13.30
2022-10-14T14:45:34.183Z,14.25
2022-10-14T14:48:08.542Z,13.10
2022-10-14T14:50:44.651Z,15.73
2022-10-14T14:53:20.483Z,16.58
2022-10-14T14:56:05.839Z,17.70
2022-10-14T14:58:46.675Z,18.70
2022-10-14T15:01:30.526Z,18.15
2022-10-14T15:04:11.969Z,25.38
2022-10-14T15:06:53.576Z,23.25
2022-10-14T15:09:46.615Z,21.77
2022-10-14T15:12:27.304Z,17.27
2022-10-14T15:15:01.433Z,14.60
2022-10-14T15:17:41.138Z,14.65
2022-10-14T15:20:32.236Z,15.82
2022-10-14T15:23:02.416Z,14.18
2022-10-14T15:25:34.602Z,15.15
2022-10-14T15:28:05.257Z,18.10
2022-10-14T15:30:58.253Z,19.02
2022-10-14T15:33:30.580Z,16.08
2022-10-14T15:36:03.836Z,18.42
2022-10-14T15:38:33.994Z,17.20
2022-10-14T15:41:07.232Z,15.60
2022-10-14T15:43:37.452Z,15.48
2022-10-14T15:46:23.207Z,16.98
2022-10-14T15:48:57.678Z,16.02
2022-10-14T15:51:32.305Z,14.65
2022-10-14T15:54:02.289Z,15.85
2022-10-14T15:56:32.533Z,14.05
2022-10-14T15:59:02.376Z,14.07
2022-10-14T16:01:32.770Z,12.73
2022-10-14T16:04:03.444Z,14.07
2022-10-14T16:06:34.222Z,12.52
2022-10-14T16:09:04.287Z,14.05
2022-10-14T16:14:03.364Z,12.70
2022-10-14T16:16:42.700Z,15.80
2022-10-14T16:19:12.793Z,16.25
2022-10-14T16:21:42.892Z,20.90
2022-10-14T16:24:20.285Z,19.38
2022-10-14T16:26:51.084Z,18.02
2022-10-14T16:29:22.737Z,22.58
2022-10-14T16:31:53.703Z,24.15
2022-10-14T16:34:25.213Z,23.77
2022-10-14T16:36:55.268Z,24.90
2022-10-14T16:41:54.636Z,21.92
2022-10-14T16:44:26.821Z,19.80
2022-10-14T16:47:16.882Z,18.40
2022-10-14T16:49:50.827Z,20.48
2022-10-14T16:52:21.835Z,18.42
2022-10-14T16:54:52.018Z,20.45
2022-10-14T16:57:22.773Z,38.08
2022-10-14T16:59:52.683Z,30.65
2022-10-14T17:02:23.045Z,34.65
2022-10-14T17:04:53.487Z,36.10
2022-10-14T17:07:23.306Z,31.77
2022-10-14T17:09:53.199Z,26.20
2022-10-14T17:12:23.483Z,22.38
2022-10-14T17:14:53.672Z,19.58
2022-10-14T17:17:25.888Z,20.98
2022-10-14T17:19:55.905Z,18.10
2022-10-14T17:22:26.145Z,17.33
2022-10-14T17:24:56.583Z,17.67
2022-10-14T17:27:26.436Z,18.00
2022-10-14T17:29:56.332Z,16.63
2022-10-14T17:32:26.236Z,15.82
2022-10-14T17:34:59.043Z,15.82
2022-10-14T17:37:32.886Z,16.40
2022-10-14T17:40:03.857Z,17.73
2022-10-14T17:42:34.061Z,16.52
2022-10-14T17:47:33.211Z,15.75
2022-10-14T17:50:02.943Z,17.88
2022-10-14T17:52:32.783Z,17.42
2022-10-14T17:55:02.687Z,18.75
2022-10-14T17:57:32.552Z,17.23
2022-10-14T18:00:02.496Z,17.55
2022-10-14T18:02:33.487Z,17.17
2022-10-14T18:05:03.515Z,18.63
2022-10-14T18:07:33.290Z,17.65
2022-10-14T18:10:03.386Z,15.75
2022-10-14T18:12:33.936Z,14.70
2022-10-14T18:15:04.014Z,15.38
2022-10-14T18:17:33.789Z,15.45
2022-10-14T18:20:07.469Z,16.48
2022-10-14T18:22:37.337Z,15.65
2022-10-14T18:25:08.418Z,15.70
2022-10-14T18:27:38.213Z,16.73
2022-10-14T18:30:08.759Z,14.27
2022-10-14T18:32:39.453Z,13.60
2022-10-14T18:35:09.760Z,13.07
2022-10-14T18:37:39.567Z,12.23
2022-10-14T18:40:09.948Z,11.30
2022-10-14T18:42:39.735Z,9.90
2022-10-14T18:45:09.995Z,12.55
2022-10-14T18:47:40.521Z,10.73
2022-10-14T18:50:10.575Z,11.93
2022-10-14T18:52:40.639Z,12.57
2022-10-14T18:55:11.118Z,15.20
2022-10-14T18:57:41.053Z,13.32
2022-10-14T19:00:13.563Z,13.07
2022-10-14T19:02:44.349Z,14.25
2022-10-14T19:05:14.147Z,13.02
2022-10-14T19:07:43.966Z,12.88
2022-10-14T19:10:13.871Z,14.82
2022-10-14T19:12:43.702Z,14.70
2022-10-14T19:15:13.873Z,16.15
2022-10-14T19:20:14.586Z,12.98
2022-10-14T19:22:46.983Z,14.77
2022-10-14T19:25:18.193Z,13.32
2022-10-14T19:27:48.437Z,13.25
2022-10-14T19:32:47.585Z,11.70
2022-10-14T19:37:48.322Z,13.40
2022-10-14T19:40:19.924Z,12.77
2022-10-14T19:42:53.001Z,14.85
2022-10-14T19:45:22.946Z,16.33
2022-10-14T19:47:53.241Z,15.00
2022-10-14T19:52:53.395Z,14.73
2022-10-14T19:55:23.249Z,13.80
2022-10-14T19:57:57.680Z,14.20
2022-10-14T20:00:27.770Z,13.52
2022-10-14T20:02:57.608Z,15.98
2022-10-14T20:05:27.658Z,12.85
2022-10-14T20:07:58.901Z,15.10
2022-10-14T20:10:28.832Z,14.68
2022-10-14T20:12:59.013Z,15.88
2022-10-14T20:15:28.972Z,13.43
2022-10-14T20:17:58.824Z,14.52
2022-10-14T20:20:28.699Z,13.63
2022-10-14T20:22:58.590Z,13.25
2022-10-14T20:25:28.885Z,14.48
2022-10-14T20:30:29.172Z,13.68
2022-10-14T20:37:58.954Z,12.20
2022-10-14T20:40:29.298Z,13.30
2022-10-14T20:42:59.770Z,12.32
2022-10-14T20:45:29.918Z,11.05
2022-10-14T20:50:29.142Z,10.70
2022-10-14T20:52:59.098Z,10.65
2022-10-14T20:55:29.156Z,11.70
2022-10-14T20:57:59.015Z,12.48
2022-10-14T21:00:29.095Z,10.70
2022-10-14T21:02:59.093Z,10.70
2022-10-14T21:05:29.107Z,10.15
2022-10-14T21:08:01.806Z,10.63
2022-10-14T21:10:31.962Z,11.63
2022-10-14T21:15:31.729Z,10.55
2022-10-14T21:18:01.592Z,10.93
2022-10-14T21:20:31.517Z,10.70
2022-10-14T21:23:01.509Z,10.85
2022-10-14T21:25:31.377Z,10.07
2022-10-14T21:28:01.161Z,10.40
2022-10-14T21:30:31.210Z,10.18
2022-10-14T21:33:01.131Z,10.43
2022-10-14T21:35:31.057Z,9.75
2022-10-14T21:38:01.057Z,10.10
2022-10-14T21:40:30.897Z,10.63
2022-10-14T21:43:00.779Z,12.48
2022-10-14T21:45:30.823Z,10.45
2022-10-14T21:48:01.631Z,10.32
2022-10-14T21:50:31.474Z,10.75
2022-10-14T21:53:01.352Z,8.45
2022-10-14T21:55:31.178Z,8.73
2022-10-14T21:58:01.340Z,10.48
2022-10-14T22:03:00.384Z,9.90
2022-10-14T22:05:30.494Z,9.95
2022-10-14T22:10:45.382Z,9.73
2022-10-14T22:13:15.264Z,10.88
2022-10-14T22:15:45.811Z,10.82
2022-10-14T22:18:15.736Z,11.00
2022-10-14T22:20:45.550Z,10.35
2022-10-14T22:23:15.365Z,10.48
2022-10-14T22:25:45.174Z,11.32
2022-10-14T22:28:15.053Z,11.45
2022-10-14T22:30:45.005Z,10.27
2022-10-14T22:33:14.911Z,11.07
2022-10-14T22:35:45.905Z,9.73
2022-10-14T22:38:15.751Z,10.43
2022-10-14T22:40:45.671Z,10.90
2022-10-14T22:43:15.475Z,10.52
2022-10-14T22:45:45.322Z,10.10
2022-10-14T22:48:15.173Z,10.25
2022-10-14T22:50:45.116Z,11.25
2022-10-14T22:53:15.217Z,10.32
2022-10-14T22:55:45.047Z,10.45
2022-10-14T22:58:15.066Z,11.40
2022-10-14T23:00:44.891Z,13.30
2022-10-14T23:03:14.885Z,10.15
2022-10-14T23:05:44.877Z,11.75
2022-10-14T23:08:16.478Z,10.70
2022-10-14T23:10:47.062Z,9.93
2022-10-14T23:13:16.837Z,10.38
2022-10-14T23:15:56.255Z,11.65
2022-10-14T23:18:26.967Z,10.43
2022-10-14T23:20:57.188Z,11.63
2022-10-14T23:25:56.230Z,10.98
2022-10-14T23:28:28.136Z,12.05
2022-10-14T23:30:58.046Z,11.52
2022-10-14T23:33:27.938Z,12.23
2022-10-14T23:35:57.792Z,10.40
2022-10-14T23:38:27.659Z,12.40
2022-10-14T23:40:59.017Z,11.57
2022-10-14T23:43:32.498Z,11.93
2022-10-14T23:46:02.617Z,11.63
2022-10-14T23:51:02.552Z,12.23
2022-10-14T23:53:32.653Z,11.98
2022-10-14T23:56:02.945Z,13.20
